aviador You're here:

PAVA Decoded Metar

Chevak in AK, USA
Report Time2018-06-25 08:56:00
UTC Time2018-06-25 09:54:16
Flight Rules vfr VFR
Wind360° at 06 kt
W.Decomp.*RWY 02: 5.0 kt HW 3.3 kt LCW
Visibility9999 m
Phenomena:N/A
Clouds:Broken 070 Hf
Overcast 085 Hf
Expected CloudBase > 1,200 ft AGL from Temp-Dew spread
Ceiling7,000 ft
Temp11°C (ISA -4)
Dew Point08°C (82% RH)
AAT8.4°C
QNH1013 hPa
Density Alt-240 ft
Elevation75 ft
Report Wrong Elevation
Raw Report
PAVA 250856Z AUTO 36006KT 10SM BKN070 OVC085 11/08 A2991 RMK AO2
SLP214 T01060083 58008 $=

Extra information for PAVA:More info

Airport Information Weather charts Add Link Nearby Venues Social comments

AIRNAV info for PAVA